Time;durP1;ratioP1;P1;durP2;ratioP2;P2;SDS_P1;SDS_P2;PMS_P1;PMS_P2;Temp;Humidity;BMP_temperature;BMP_pressure;BME280_temperature;BME280_humidity;BME280_pressure;Samples;Min_cycle;Max_cycle;Signal;HPM_P1;HPM_P2
2022/08/11 00:00:11;;;;;;;7.18;3.67;;;17.80;99.90;;;;;;5031129;28;20044;-77
2022/08/11 00:02:47;;;;;;;6.68;4.45;;;17.80;99.90;;;;;;5017307;28;20042;-77
2022/08/11 00:05:16;;;;;;;8.10;4.93;;;17.90;99.90;;;;;;5006748;28;20099;-78
2022/08/11 00:08:08;;;;;;;8.15;4.88;;;17.90;99.90;;;;;;5004409;28;20044;-77
2022/08/11 00:10:35;;;;;;;8.13;4.80;;;17.90;99.90;;;;;;5015241;28;20466;-77
2022/08/11 00:13:05;;;;;;;8.90;5.30;;;17.90;99.90;;;;;;5030354;28;20397;-77
2022/08/11 00:15:45;;;;;;;8.18;5.85;;;17.80;99.90;;;;;;5015196;28;20156;-77
2022/08/11 00:18:11;;;;;;;10.18;5.45;;;17.70;99.90;;;;;;5015125;28;20045;-77
2022/08/11 00:20:42;;;;;;;8.55;5.68;;;17.60;99.90;;;;;;5021697;28;20485;-76
2022/08/11 00:23:11;;;;;;;8.67;6.03;;;17.50;99.90;;;;;;5016396;28;20041;-76
2022/08/11 00:25:43;;;;;;;8.68;6.30;;;17.40;99.90;;;;;;5034843;28;20052;-76
2022/08/11 00:28:24;;;;;;;;;;;17.40;99.90;;;;;;5044034;28;20504;-76
2022/08/11 00:30:52;;;;;;;9.00;6.53;;;17.30;99.90;;;;;;5027744;28;19955;-75
2022/08/11 00:33:21;;;;;;;8.25;5.70;;;17.20;99.90;;;;;;5044334;28;20041;-76
2022/08/11 00:35:49;;;;;;;9.55;6.88;;;17.20;99.90;;;;;;5043362;28;20096;-75
2022/08/11 00:38:17;;;;;;;9.35;6.82;;;17.10;99.90;;;;;;5047981;28;20069;-77
2022/08/11 00:41:00;;;;;;;9.02;6.82;;;17.00;99.90;;;;;;5044243;28;20400;-76
2022/08/11 00:43:31;;;;;;;9.75;6.50;;;17.00;99.90;;;;;;5027501;28;20041;-76
2022/08/11 00:46:25;;;;;;;11.38;7.13;;;17.00;99.90;;;;;;5027253;28;20105;-77
2022/08/11 00:49:29;;;;;;;9.15;6.47;;;17.00;99.90;;;;;;5042870;28;20041;-76
2022/08/11 00:52:16;;;;;;;9.43;6.88;;;17.00;99.90;;;;;;5043391;28;20060;-77
2022/08/11 00:54:45;;;;;;;9.80;6.82;;;17.00;99.90;;;;;;5026393;28;20038;-76
2022/08/11 00:57:28;;;;;;;10.23;7.50;;;17.00;99.90;;;;;;5027672;28;20037;-77
2022/08/11 01:00:09;;;;;;;10.02;7.28;;;16.90;99.90;;;;;;5014647;28;20033;-75
2022/08/11 01:02:57;;;;;;;11.10;7.65;;;16.80;99.90;;;;;;5023774;28;20052;-77
2022/08/11 01:05:37;;;;;;;10.43;7.28;;;16.80;99.90;;;;;;5022348;28;20038;-76
2022/08/11 01:08:34;;;;;;;9.18;6.63;;;16.70;99.90;;;;;;5040259;28;20481;-76
2022/08/11 01:11:32;;;;;;;9.70;5.55;;;16.70;99.90;;;;;;5022079;28;20507;-76
2022/08/11 01:14:19;;;;;;;8.18;5.65;;;16.80;99.90;;;;;;5014986;28;20037;-77
2022/08/11 01:17:27;;;;;;;9.07;6.57;;;16.80;99.90;;;;;;5020876;28;20484;-76
2022/08/11 01:20:10;;;;;;;8.82;6.95;;;16.90;99.90;;;;;;5033365;28;20044;-76
2022/08/11 01:22:58;;;;;;;8.48;5.68;;;17.00;99.90;;;;;;5033277;28;20041;-77
2022/08/11 01:25:49;;;;;;;10.43;6.97;;;16.90;99.90;;;;;;5030238;28;20596;-76
2022/08/11 01:29:00;;;;;;;9.60;7.47;;;16.90;99.90;;;;;;5001121;28;20064;-76
2022/08/11 01:32:04;;;;;;;11.57;7.03;;;16.90;99.90;;;;;;5018401;28;20536;-76
2022/08/11 01:34:54;;;;;;;9.48;6.80;;;16.80;99.90;;;;;;5026048;28;20049;-76
2022/08/11 01:37:29;;;;;;;8.13;6.07;;;16.80;99.90;;;;;;5013493;28;20041;-76
2022/08/11 01:40:39;;;;;;;9.23;6.35;;;16.80;99.90;;;;;;5013152;28;20041;-76
2022/08/11 01:46:34;;;;;;;10.25;7.85;;;16.90;99.90;;;;;;5033246;28;20046;-76
2022/08/11 01:49:11;;;;;;;8.25;6.90;;;16.80;99.90;;;;;;5013863;28;20042;-76
2022/08/11 01:51:52;;;;;;;9.73;7.35;;;16.80;99.90;;;;;;5007590;28;20111;-76
2022/08/11 01:54:38;;;;;;;9.10;6.88;;;16.80;99.90;;;;;;5021670;28;20060;-77
2022/08/11 01:57:27;;;;;;;7.53;5.22;;;16.80;99.90;;;;;;5035756;28;20511;-76
2022/08/11 02:00:17;;;;;;;9.85;7.07;;;16.90;99.90;;;;;;5017038;28;20041;-76
2022/08/11 02:03:11;;;;;;;7.78;5.32;;;16.90;99.90;;;;;;5045740;28;20030;-76
2022/08/11 02:09:42;;;;;;;10.93;7.78;;;16.80;99.90;;;;;;4992959;28;20054;-76
2022/08/11 02:12:42;;;;;;;7.22;4.32;;;16.80;99.90;;;;;;5005568;28;20056;-76
2022/08/11 02:15:25;;;;;;;11.07;8.35;;;16.70;99.90;;;;;;4999571;28;20038;-77
2022/08/11 02:18:15;;;;;;;8.23;5.85;;;16.70;99.90;;;;;;5013530;28;20054;-76
2022/08/11 02:23:52;;;;;;;9.60;7.18;;;16.60;99.90;;;;;;5032610;28;20124;-76
2022/08/11 02:26:32;;;;;;;8.88;6.20;;;16.70;99.90;;;;;;5018058;28;20096;-77
2022/08/11 02:29:16;;;;;;;13.27;9.55;;;16.70;99.90;;;;;;5011732;28;20042;-76
2022/08/11 02:34:50;;;;;;;8.60;7.25;;;16.70;99.90;;;;;;5032175;28;20393;-76
2022/08/11 02:37:33;;;;;;;11.73;8.57;;;16.60;99.90;;;;;;5031969;28;20053;-76
2022/08/11 02:40:09;;;;;;;11.60;8.68;;;16.60;99.90;;;;;;5012384;28;20038;-76
2022/08/11 02:42:45;;;;;;;11.23;8.20;;;16.50;99.90;;;;;;5024512;28;20038;-76
2022/08/11 02:45:11;;;;;;;10.90;8.27;;;16.50;99.90;;;;;;5026913;28;20516;-76
2022/08/11 02:50:48;;;;;;;11.45;8.85;;;16.50;99.90;;;;;;5016052;28;20057;-77
2022/08/11 02:53:59;;;;;;;10.35;8.52;;;16.50;99.90;;;;;;5015668;28;20034;-76
2022/08/11 02:57:22;;;;;;;13.00;10.15;;;16.50;99.90;;;;;;4994888;28;20049;-76
2022/08/11 02:59:58;;;;;;;11.65;10.05;;;16.50;99.90;;;;;;4972272;28;20043;-76
2022/08/11 03:02:33;;;;;;;12.40;11.00;;;16.50;99.90;;;;;;4956438;28;20518;-76
2022/08/11 03:04:59;;;;;;;18.73;14.57;;;16.40;99.90;;;;;;5002738;28;20483;-76
2022/08/11 03:07:51;;;;;;;10.68;8.32;;;16.30;99.90;;;;;;5018332;28;20096;-76
2022/08/11 03:10:22;;;;;;;12.10;9.60;;;16.10;99.90;;;;;;5020653;28;20041;-76
2022/08/11 03:16:46;;;;;;;17.48;15.18;;;16.00;99.90;;;;;;5017461;28;20044;-76
2022/08/11 03:19:38;;;;;;;14.95;11.88;;;15.90;99.90;;;;;;5015000;28;20084;-76
2022/08/11 03:22:12;;;;;;;12.82;10.95;;;15.90;99.90;;;;;;5030734;28;20042;-76
2022/08/11 03:25:13;;;;;;;11.15;8.88;;;16.00;99.90;;;;;;5015175;28;20156;-76
2022/08/11 03:27:52;;;;;;;11.98;9.20;;;16.00;99.90;;;;;;5026033;28;20054;-76
2022/08/11 03:30:40;;;;;;;12.45;10.30;;;16.00;99.90;;;;;;5030841;28;20120;-76
2022/08/11 03:36:47;;;;;;;22.30;18.10;;;16.00;99.90;;;;;;5022102;28;20052;-76
2022/08/11 03:39:26;;;;;;;9.50;7.95;;;16.10;99.90;;;;;;5003263;28;20048;-76
2022/08/11 03:42:06;;;;;;;7.95;6.70;;;16.10;99.90;;;;;;5030734;28;20132;-76
2022/08/11 03:44:55;;;;;;;8.65;5.57;;;16.10;99.90;;;;;;5031384;28;20041;-76
2022/08/11 03:47:44;;;;;;;8.23;6.00;;;16.10;99.90;;;;;;5031134;28;20045;-76
2022/08/11 03:50:54;;;;;;;10.27;7.38;;;16.30;99.90;;;;;;5030808;28;20045;-76
2022/08/11 03:53:50;;;;;;;11.70;9.18;;;16.30;99.90;;;;;;5008288;28;20056;-76
2022/08/11 03:56:36;;;;;;;14.15;10.95;;;16.30;99.90;;;;;;5020111;28;20045;-76
2022/08/11 03:59:01;;;;;;;12.02;9.10;;;16.30;99.90;;;;;;5033672;28;20124;-76
2022/08/11 04:01:36;;;;;;;8.88;6.95;;;16.20;99.90;;;;;;5031113;28;20084;-76
2022/08/11 04:04:34;;;;;;;17.92;15.52;;;16.20;99.90;;;;;;5015318;28;20128;-77
2022/08/11 04:07:34;;;;;;;12.88;9.70;;;16.20;99.90;;;;;;5022824;28;20045;-76
2022/08/11 04:10:30;;;;;;;13.80;10.98;;;16.20;99.90;;;;;;4995434;28;20050;-76
2022/08/11 04:13:25;;;;;;;14.00;11.38;;;16.20;99.90;;;;;;5015574;28;20041;-76
2022/08/11 04:16:43;;;;;;;12.13;9.52;;;16.10;99.90;;;;;;5014396;28;20492;-76
2022/08/11 04:19:55;;;;;;;15.20;13.15;;;16.10;99.90;;;;;;4978933;28;20526;-76
2022/08/11 04:22:47;;;;;;;10.48;8.85;;;16.10;99.90;;;;;;5002999;28;20045;-76
2022/08/11 04:25:21;;;;;;;18.77;16.17;;;16.10;99.90;;;;;;5018463;28;20092;-76
2022/08/11 04:28:14;;;;;;;11.85;10.13;;;16.10;99.90;;;;;;5030618;28;20062;-76
2022/08/11 04:30:49;;;;;;;15.73;13.68;;;16.00;99.90;;;;;;5014394;28;20041;-76
2022/08/11 04:34:01;;;;;;;13.00;10.25;;;16.00;99.90;;;;;;5030452;28;20034;-76
2022/08/11 04:40:00;;;;;;;12.40;10.10;;;16.00;99.90;;;;;;5030816;28;20049;-77
2022/08/11 04:45:50;;;;;;;15.15;12.90;;;15.90;99.90;;;;;;5017659;28;20138;-76
2022/08/11 05:03:10;;;;;;;20.35;17.73;;;16.00;99.90;;;;;;5033989;28;20050;-76
2022/08/11 05:05:39;;;;;;;15.85;13.70;;;16.00;99.90;;;;;;5027023;28;20079;-76
2022/08/11 05:08:24;;;;;;;16.90;14.85;;;15.90;99.90;;;;;;5017542;28;20120;-76
2022/08/11 05:11:16;;;;;;;15.85;13.85;;;15.90;99.90;;;;;;5016854;28;20115;-76
2022/08/11 05:36:45;;;;;;;16.02;14.32;;;16.50;99.90;;;;;;5032747;28;20124;-76
2022/08/11 05:56:18;;;;;;;11.15;8.32;;;21.10;99.90;;;;;;5021824;28;20045;-76
2022/08/11 05:58:49;;;;;;;11.23;7.80;;;22.10;99.90;;;;;;5019321;28;20493;-76
2022/08/11 06:01:31;;;;;;;9.25;7.90;;;22.90;99.90;;;;;;5019305;28;20037;-77
2022/08/11 06:04:13;;;;;;;8.65;7.70;;;23.40;99.90;;;;;;5032216;28;20041;-76
2022/08/11 06:07:08;;;;;;;9.85;7.00;;;23.60;99.90;;;;;;5048525;28;20048;-76
2022/08/11 06:09:36;;;;;;;9.38;6.95;;;24.30;99.90;;;;;;5030784;28;20048;-74
2022/08/11 06:12:07;;;;;;;9.82;7.50;;;24.80;99.90;;;;;;5029539;28;20117;-74
2022/08/11 06:14:40;;;;;;;10.38;7.45;;;24.70;98.40;;;;;;5027154;28;20489;-75
2022/08/11 06:17:06;;;;;;;9.57;6.85;;;24.40;98.90;;;;;;5015164;28;20508;-74
2022/08/11 06:19:39;;;;;;;13.02;7.88;;;24.50;98.60;;;;;;5012179;28;20038;-74
2022/08/11 06:22:11;;;;;;;8.55;6.22;;;23.70;97.40;;;;;;5032238;28;20073;-74
2022/08/11 06:24:49;;;;;;;11.13;6.80;;;24.70;98.80;;;;;;5016143;28;20538;-74
2022/08/11 06:27:20;;;;;;;9.00;6.75;;;24.50;97.30;;;;;;5022616;28;20065;-74
2022/08/11 06:29:50;;;;;;;10.67;7.20;;;25.20;95.90;;;;;;5029339;28;20141;-74
2022/08/11 06:32:17;;;;;;;8.20;6.47;;;25.00;95.10;;;;;;5018811;28;20100;-74
2022/08/11 06:35:06;;;;;;;10.57;6.50;;;25.30;94.90;;;;;;5027275;28;20065;-75
2022/08/11 06:37:59;;;;;;;9.60;6.95;;;25.30;95.30;;;;;;5004895;28;20144;-75
2022/08/11 06:40:39;;;;;;;9.50;6.45;;;25.30;95.70;;;;;;5000738;28;20034;-75
2022/08/11 06:43:28;;;;;;;10.35;7.22;;;26.00;93.70;;;;;;5022174;28;20496;-76
2022/08/11 06:46:08;;;;;;;8.55;6.55;;;25.70;94.20;;;;;;5020766;28;20041;-77
2022/08/11 06:48:38;;;;;;;11.32;6.25;;;25.90;94.00;;;;;;4998583;28;20076;-78
2022/08/11 06:51:13;;;;;;;9.25;7.00;;;26.00;93.90;;;;;;5014879;28;20049;-77
2022/08/11 06:53:46;;;;;;;9.15;6.80;;;26.00;92.70;;;;;;5031991;28;20538;-77
2022/08/11 07:02:14;;;;;;;11.68;6.68;;;26.90;92.40;;;;;;5021525;28;20081;-77
2022/08/11 07:04:42;;;;;;;9.48;6.68;;;27.10;88.60;;;;;;5017445;28;20044;-77
2022/08/11 07:15:59;;;;;;;8.32;6.00;;;27.40;87.70;;;;;;5031259;28;20095;-77
2022/08/11 07:30:07;;;;;;;8.18;5.57;;;28.40;81.20;;;;;;5031483;28;20519;-77
2022/08/11 07:32:43;;;;;;;9.63;5.65;;;28.50;80.30;;;;;;5031648;28;20037;-77
2022/08/11 07:35:16;;;;;;;8.40;5.50;;;28.60;78.80;;;;;;5014869;28;20205;-76
2022/08/11 07:38:03;;;;;;;8.07;5.60;;;28.70;77.00;;;;;;5031794;28;20516;-77
2022/08/11 07:40:29;;;;;;;7.63;4.72;;;28.40;77.40;;;;;;5041417;28;20046;-76
2022/08/11 07:42:57;;;;;;;8.45;4.68;;;28.80;77.30;;;;;;5019639;28;20073;-77
2022/08/11 07:53:41;;;;;;;7.45;4.20;;;28.60;72.60;;;;;;5011267;28;20431;-77
2022/08/11 07:56:07;;;;;;;8.15;4.68;;;28.50;72.50;;;;;;5018790;28;20121;-77
2022/08/11 08:18:00;;;;;;;6.53;3.78;;;28.80;71.10;;;;;;5026918;28;20045;-77
2022/08/11 08:20:35;;;;;;;7.15;2.80;;;29.00;68.10;;;;;;5017803;28;20095;-77
2022/08/11 08:23:02;;;;;;;7.00;3.08;;;29.60;67.90;;;;;;5030157;28;20059;-77
2022/08/11 08:25:37;;;;;;;6.57;2.80;;;29.70;66.90;;;;;;5029916;28;20033;-77
2022/08/11 08:28:07;;;;;;;5.25;2.40;;;30.00;65.50;;;;;;5016668;28;20072;-77
2022/08/11 08:30:46;;;;;;;5.75;3.03;;;29.80;61.60;;;;;;5017745;28;20556;-77
2022/08/11 08:33:27;;;;;;;6.07;2.75;;;29.70;61.80;;;;;;5007288;28;20033;-77
2022/08/11 08:36:10;;;;;;;5.25;2.25;;;29.70;63.60;;;;;;5032841;28;20040;-77
2022/08/11 08:38:47;;;;;;;6.07;2.50;;;29.90;62.40;;;;;;5033634;28;20413;-77
2022/08/11 08:41:18;;;;;;;5.90;2.30;;;29.60;61.30;;;;;;5028633;28;20042;-77
2022/08/11 08:43:49;;;;;;;6.53;2.38;;;30.10;59.30;;;;;;5024518;28;20049;-77
2022/08/11 08:46:21;;;;;;;7.32;1.70;;;29.30;59.50;;;;;;5009953;28;20057;-77
2022/08/11 08:48:48;;;;;;;4.90;1.75;;;29.70;59.60;;;;;;5023206;28;20076;-77
2022/08/11 08:54:05;;;;;;;5.13;1.75;;;30.40;59.10;;;;;;5008760;28;20041;-77
2022/08/11 08:56:33;;;;;;;5.60;1.80;;;30.20;56.30;;;;;;5027675;28;21004;-76
2022/08/11 08:59:01;;;;;;;6.63;1.90;;;29.90;57.30;;;;;;5023326;28;20034;-77
2022/08/11 09:01:35;;;;;;;4.25;1.60;;;29.60;54.30;;;;;;5032045;28;20069;-77
2022/08/11 09:04:05;;;;;;;6.38;1.55;;;29.70;55.80;;;;;;5032568;28;20037;-77
2022/08/11 09:06:32;;;;;;;5.88;1.73;;;29.70;53.20;;;;;;5031565;28;20041;-76
2022/08/11 09:08:58;;;;;;;4.47;1.40;;;29.80;50.60;;;;;;5032918;28;20047;-77
2022/08/11 09:14:10;;;;;;;4.20;1.50;;;30.10;52.20;;;;;;5033022;28;20515;-77
2022/08/11 09:16:37;;;;;;;6.00;1.83;;;30.20;51.40;;;;;;5011332;28;20049;-76
2022/08/11 09:19:04;;;;;;;4.65;1.60;;;30.40;49.00;;;;;;5031761;28;20129;-76
2022/08/11 09:21:31;;;;;;;6.03;1.50;;;30.20;48.80;;;;;;5032322;28;20041;-75
2022/08/11 09:27:25;;;;;;;7.32;1.60;;;30.40;46.70;;;;;;5027710;28;20050;-77
2022/08/11 09:29:32;;;;;;;4.43;1.60;;;30.80;46.90;;;;;;5039055;28;20412;-77
2022/08/11 09:31:59;;;;;;;5.75;1.70;;;31.00;44.60;;;;;;5016549;28;20048;-76
2022/08/11 09:34:26;;;;;;;5.47;1.70;;;31.00;46.10;;;;;;5028191;28;20048;-76
2022/08/11 09:44:45;;;;;;;4.93;1.70;;;31.50;44.80;;;;;;5033687;28;20049;-76
2022/08/11 09:45:12;;;;;;;5.15;1.58;;;31.20;42.30;;;;;;5031601;28;20038;-77
2022/08/11 09:47:39;;;;;;;6.28;1.65;;;31.10;42.50;;;;;;5048954;28;20065;-77
2022/08/11 09:50:07;;;;;;;4.00;1.48;;;31.00;42.30;;;;;;5026125;28;20101;-77
2022/08/11 09:52:40;;;;;;;4.82;1.50;;;31.20;43.30;;;;;;5043782;28;20075;-75
2022/08/11 09:55:09;;;;;;;4.97;1.50;;;31.50;42.70;;;;;;5046470;28;20136;-77
2022/08/11 10:00:39;;;;;;;4.60;1.50;;;31.40;40.80;;;;;;5039307;28;20485;-77
2022/08/11 10:03:26;;;;;;;7.63;1.50;;;31.30;40.70;;;;;;5033159;28;20536;-76
2022/08/11 10:08:51;;;;;;;6.20;1.60;;;31.60;41.40;;;;;;5031890;28;20523;-77
2022/08/11 10:11:22;;;;;;;4.23;1.60;;;32.00;39.40;;;;;;5015161;28;20489;-77
2022/08/11 10:16:40;;;;;;;5.72;1.42;;;32.10;39.00;;;;;;5028129;28;20045;-77
2022/08/11 10:19:08;;;;;;;5.53;1.50;;;32.20;38.00;;;;;;5031462;28;20049;-77
2022/08/11 10:21:42;;;;;;;4.93;1.50;;;32.10;37.70;;;;;;5014471;28;20099;-77
2022/08/11 10:27:00;;;;;;;4.35;1.40;;;32.20;38.00;;;;;;5027282;28;20065;-77
2022/08/11 10:35:19;;;;;;;5.18;1.48;;;32.00;37.40;;;;;;5016834;28;20496;-77
2022/08/11 10:37:46;;;;;;;4.97;1.42;;;32.10;37.50;;;;;;4998554;28;20103;-77
2022/08/11 10:40:21;;;;;;;4.85;1.40;;;32.20;36.50;;;;;;5014578;28;20060;-77
2022/08/11 10:43:02;;;;;;;4.05;1.40;;;32.10;37.10;;;;;;5030775;28;20077;-77
2022/08/11 10:48:24;;;;;;;5.00;1.50;;;32.20;35.40;;;;;;5030184;28;20052;-77
2022/08/11 10:59:09;;;;;;;3.17;1.20;;;31.90;37.00;;;;;;5021638;28;20488;-77
2022/08/11 11:01:38;;;;;;;4.13;1.33;;;32.10;36.30;;;;;;5020909;28;20507;-76
2022/08/11 11:04:11;;;;;;;4.68;1.40;;;32.20;36.40;;;;;;5025371;28;20080;-77
2022/08/11 11:07:03;;;;;;;5.88;1.42;;;32.50;36.40;;;;;;5028421;28;20053;-77
2022/08/11 11:09:31;;;;;;;6.18;1.40;;;32.40;34.10;;;;;;5032989;28;20114;-76
2022/08/11 11:18:05;;;;;;;4.43;1.30;;;32.20;35.60;;;;;;5020350;28;20536;-77
2022/08/11 11:20:41;;;;;;;3.45;1.40;;;32.40;35.10;;;;;;5017066;28;20515;-77
2022/08/11 11:23:21;;;;;;;4.13;1.40;;;32.40;34.70;;;;;;5017615;28;20128;-77
2022/08/11 11:26:13;;;;;;;4.70;1.40;;;32.60;34.80;;;;;;5006508;28;20034;-77
2022/08/11 11:28:56;;;;;;;5.03;1.30;;;32.70;35.90;;;;;;5002509;28;20049;-77
2022/08/11 11:31:55;;;;;;;4.40;1.50;;;32.90;34.30;;;;;;5004196;28;20516;-77
2022/08/11 11:34:42;;;;;;;4.30;1.30;;;32.60;34.30;;;;;;4987818;28;20046;-77
2022/08/11 11:37:12;;;;;;;5.38;1.60;;;32.50;35.10;;;;;;5017186;28;20033;-77
2022/08/11 11:39:38;;;;;;;4.28;1.35;;;32.60;34.90;;;;;;5014128;28;20493;-77
2022/08/11 11:42:09;;;;;;;4.65;1.30;;;32.60;35.10;;;;;;5002104;28;20037;-77
2022/08/11 11:44:42;;;;;;;7.45;1.70;;;32.80;35.10;;;;;;5015923;28;20049;-77
2022/08/11 11:47:11;;;;;;;5.70;1.58;;;32.70;33.50;;;;;;4994670;28;20072;-77
2022/08/11 11:49:41;;;;;;;4.05;1.50;;;32.60;34.40;;;;;;5029773;28;20041;-77
2022/08/11 11:52:12;;;;;;;4.05;1.30;;;32.70;35.20;;;;;;5029746;28;20492;-77
2022/08/11 11:54:39;;;;;;;5.57;1.35;;;33.00;35.00;;;;;;5030346;28;20041;-77
2022/08/11 12:02:36;;;;;;;4.80;1.50;;;31.70;34.00;;;;;;5020738;28;20053;-76
2022/08/11 12:05:04;;;;;;;5.03;1.40;;;32.00;35.40;;;;;;5030999;28;20477;-77
2022/08/11 12:10:16;;;;;;;4.82;1.40;;;32.30;34.70;;;;;;5022890;28;20516;-77
2022/08/11 12:15:27;;;;;;;5.70;1.65;;;32.20;35.00;;;;;;5008104;28;20034;-76
2022/08/11 12:17:55;;;;;;;3.85;1.30;;;32.30;34.80;;;;;;5007208;28;20404;-77
2022/08/11 12:20:21;;;;;;;5.25;1.50;;;32.20;34.70;;;;;;5023521;28;20041;-77
2022/08/11 12:28:21;;;;;;;6.18;1.30;;;32.60;34.40;;;;;;5021090;28;20064;-77
2022/08/11 12:30:51;;;;;;;5.40;1.50;;;32.30;33.50;;;;;;5023216;28;20037;-77
2022/08/11 12:33:18;;;;;;;4.78;1.48;;;32.40;34.60;;;;;;5038006;28;20038;-77
2022/08/11 12:35:47;;;;;;;5.25;1.40;;;32.40;35.10;;;;;;5024027;28;20045;-77
2022/08/11 12:38:15;;;;;;;5.05;1.40;;;32.60;34.60;;;;;;5013423;28;20041;-77
2022/08/11 12:46:26;;;;;;;6.30;1.48;;;32.40;34.10;;;;;;5016590;28;20049;-77
2022/08/11 12:51:57;;;;;;;5.30;1.40;;;32.40;33.40;;;;;;5026750;28;20528;-77
2022/08/11 12:54:33;;;;;;;6.20;1.57;;;32.30;32.20;;;;;;5031356;28;20073;-76
2022/08/11 13:05:19;;;;;;;7.03;1.40;;;32.30;33.10;;;;;;5030326;28;20052;-76
2022/08/11 13:07:46;;;;;;;4.55;1.30;;;32.00;33.20;;;;;;5016361;28;20489;-76
2022/08/11 13:12:46;;;;;;;3.92;1.30;;;31.80;32.60;;;;;;5016086;28;20049;-76
2022/08/11 13:13:05;;;;;;;5.72;1.33;;;32.00;33.20;;;;;;5032161;28;20076;-76
2022/08/11 13:15:32;;;;;;;3.58;1.20;;;32.10;32.80;;;;;;5032511;28;20615;-76
2022/08/11 13:17:59;;;;;;;3.70;1.25;;;32.20;32.40;;;;;;4999479;28;20045;-76
2022/08/11 13:20:26;;;;;;;5.22;1.38;;;32.20;31.40;;;;;;5031427;28;20077;-76
2022/08/11 13:22:55;;;;;;;5.57;1.30;;;32.10;31.30;;;;;;5014473;28;20120;-76
2022/08/11 13:25:23;;;;;;;3.63;1.27;;;32.10;32.00;;;;;;5032485;28;20171;-76
2022/08/11 13:27:51;;;;;;;3.50;1.20;;;32.00;32.40;;;;;;5032067;28;20053;-76
2022/08/11 13:33:04;;;;;;;4.25;1.20;;;32.10;32.20;;;;;;5032616;28;20045;-76
2022/08/11 13:35:31;;;;;;;3.47;1.17;;;32.10;32.90;;;;;;5031516;28;20050;-76
2022/08/11 13:38:00;;;;;;;4.32;1.20;;;32.20;32.40;;;;;;5032017;28;20099;-76
2022/08/11 13:40:27;;;;;;;5.03;1.20;;;32.20;32.20;;;;;;5016358;28;20562;-76
2022/08/11 13:42:54;;;;;;;3.55;1.10;;;32.20;31.40;;;;;;5032110;28;20111;-76
2022/08/11 13:45:22;;;;;;;5.20;1.40;;;32.00;32.50;;;;;;5031835;28;20045;-76
2022/08/11 13:47:50;;;;;;;3.05;1.10;;;32.20;30.90;;;;;;5015617;28;20581;-76
2022/08/11 13:50:17;;;;;;;4.20;1.23;;;32.10;31.40;;;;;;5031078;28;20052;-77
2022/08/11 13:52:45;;;;;;;4.25;1.10;;;32.10;32.00;;;;;;5032427;28;20033;-76
2022/08/11 13:55:20;;;;;;;4.18;1.20;;;32.10;32.00;;;;;;5015053;28;20080;-76
2022/08/11 13:57:56;;;;;;;4.47;1.30;;;32.00;32.00;;;;;;5014459;28;20041;-76
2022/08/11 14:00:21;;;;;;;4.65;1.23;;;32.00;32.00;;;;;;4996727;28;20110;-76
2022/08/11 14:02:50;;;;;;;5.28;1.33;;;32.10;32.60;;;;;;5028891;28;20037;-76
2022/08/11 14:05:24;;;;;;;2.25;1.10;;;32.10;33.10;;;;;;5029003;28;20484;-76
2022/08/11 14:07:58;;;;;;;4.63;1.40;;;32.30;32.20;;;;;;5013962;28;20496;-76
2022/08/11 14:10:28;;;;;;;3.60;1.40;;;32.30;32.50;;;;;;5015401;28;20504;-76
2022/08/11 14:15:48;;;;;;;7.45;1.40;;;32.20;33.00;;;;;;5031196;28;20045;-77
2022/08/11 14:18:21;;;;;;;4.80;1.35;;;32.00;34.10;;;;;;5029925;28;20110;-77
2022/08/11 14:23:49;;;;;;;5.68;1.33;;;31.60;34.80;;;;;;5029477;28;20107;-77
2022/08/11 14:26:22;;;;;;;5.68;1.50;;;31.70;34.90;;;;;;5030536;28;20053;-76
2022/08/11 14:29:07;;;;;;;4.05;1.45;;;31.80;35.40;;;;;;5029750;28;20215;-76
2022/08/11 14:31:35;;;;;;;3.70;1.27;;;31.70;35.20;;;;;;5014375;28;20037;-77
2022/08/11 14:34:03;;;;;;;3.90;1.25;;;31.70;35.30;;;;;;5014274;28;20040;-76
2022/08/11 14:36:35;;;;;;;3.75;1.40;;;31.70;34.20;;;;;;5030738;28;20492;-76
2022/08/11 14:39:15;;;;;;;5.25;1.30;;;31.60;34.40;;;;;;5013817;28;20430;-76
2022/08/11 14:47:30;;;;;;;4.32;1.23;;;31.50;34.50;;;;;;5026471;28;20125;-76
2022/08/11 14:49:58;;;;;;;3.95;1.40;;;31.50;35.20;;;;;;5026635;28;20049;-76
2022/08/11 14:52:24;;;;;;;3.83;1.23;;;31.50;35.40;;;;;;5013131;28;20037;-77
2022/08/11 14:57:38;;;;;;;3.22;1.20;;;31.60;34.20;;;;;;5030074;28;20081;-76
2022/08/11 15:00:08;;;;;;;7.03;1.35;;;31.50;35.00;;;;;;5030013;28;20037;-76
2022/08/11 15:05:25;;;;;;;3.70;1.38;;;31.50;35.30;;;;;;5011760;28;20037;-76
2022/08/11 15:07:53;;;;;;;6.22;1.33;;;31.50;35.20;;;;;;5018853;28;20042;-76
2022/08/11 15:10:19;;;;;;;4.63;1.30;;;31.50;35.30;;;;;;5014540;28;20057;-77
2022/08/11 15:12:46;;;;;;;4.93;1.30;;;31.50;35.30;;;;;;5026736;28;20068;-77
2022/08/11 15:18:00;;;;;;;5.05;1.40;;;31.50;35.20;;;;;;5026724;28;20052;-76
2022/08/11 15:26:15;;;;;;;4.80;1.33;;;31.30;35.20;;;;;;5030245;28;20046;-77
2022/08/11 15:37:25;;;;;;;3.88;1.25;;;31.30;35.50;;;;;;5025322;28;20047;-76
2022/08/11 15:45:50;;;;;;;4.18;1.20;;;30.80;35.40;;;;;;5021048;28;20045;-76
2022/08/11 15:48:28;;;;;;;4.15;1.30;;;30.80;36.20;;;;;;5028096;28;20396;-77
2022/08/11 15:50:59;;;;;;;4.75;1.40;;;30.70;35.80;;;;;;5007979;28;20384;-76
2022/08/11 15:53:41;;;;;;;5.63;1.40;;;30.80;36.50;;;;;;5028719;28;20048;-76
2022/08/11 15:56:08;;;;;;;3.40;1.20;;;30.80;36.20;;;;;;5028902;28;20049;-76
2022/08/11 16:04:15;;;;;;;5.38;1.60;;;30.60;37.50;;;;;;5022435;28;20037;-76
2022/08/11 16:06:53;;;;;;;;;;;30.60;37.80;;;;;;5026200;28;20045;-76
2022/08/11 16:09:59;;;;;;;4.38;1.48;;;30.60;38.20;;;;;;5035855;28;20019;-77
2022/08/11 16:12:29;;;;;;;4.40;1.60;;;30.60;38.60;;;;;;5030866;28;20514;-77
2022/08/11 16:17:46;;;;;;;5.13;1.60;;;30.60;38.60;;;;;;5026721;28;20049;-76
2022/08/11 16:20:14;;;;;;;5.57;1.50;;;30.50;38.10;;;;;;5013180;28;20042;-76
2022/08/11 16:22:43;;;;;;;5.10;1.40;;;30.40;37.70;;;;;;5023967;28;20036;-75
2022/08/11 16:25:11;;;;;;;4.50;1.48;;;30.40;37.70;;;;;;5028450;28;20089;-76
2022/08/11 16:27:45;;;;;;;4.88;1.48;;;30.30;37.10;;;;;;5029282;28;20111;-76
2022/08/11 16:30:13;;;;;;;5.20;1.60;;;30.40;38.30;;;;;;5012476;28;20041;-77
2022/08/11 16:32:42;;;;;;;5.22;1.30;;;30.30;38.50;;;;;;5029497;28;20080;-76
2022/08/11 16:40:52;;;;;;;5.20;1.50;;;30.20;38.60;;;;;;5014984;28;20072;-78
2022/08/11 16:48:54;;;;;;;6.07;1.50;;;30.10;38.90;;;;;;5031110;28;20365;-76
2022/08/11 16:51:21;;;;;;;4.88;1.40;;;30.00;38.20;;;;;;5031282;28;20045;-77
2022/08/11 16:53:49;;;;;;;4.05;1.40;;;30.00;38.00;;;;;;5018940;28;20041;-77
2022/08/11 16:56:32;;;;;;;5.10;1.38;;;29.90;38.20;;;;;;5016489;28;20046;-77
2022/08/11 16:59:13;;;;;;;5.10;1.52;;;29.80;38.80;;;;;;5032872;28;20488;-76
2022/08/11 17:01:51;;;;;;;6.20;1.58;;;29.80;39.60;;;;;;5046735;28;20039;-77
2022/08/11 17:18:39;;;;;;;4.45;1.70;;;29.30;39.30;;;;;;5039367;28;20133;-76
2022/08/11 17:21:20;;;;;;;5.60;1.77;;;29.10;39.70;;;;;;5032593;28;20164;-76
2022/08/11 17:23:50;;;;;;;6.47;1.73;;;29.00;39.60;;;;;;5032289;28;20121;-76
2022/08/11 17:26:56;;;;;;;5.63;1.70;;;28.90;39.90;;;;;;5032074;28;20049;-76
2022/08/11 17:29:48;;;;;;;5.85;1.52;;;29.00;39.90;;;;;;5031996;28;20045;-76
2022/08/11 17:37:50;;;;;;;5.35;1.77;;;28.70;39.60;;;;;;5032263;28;20044;-77
2022/08/11 17:40:23;;;;;;;4.57;1.70;;;28.60;39.70;;;;;;5031649;28;20043;-76
2022/08/11 17:48:41;;;;;;;7.03;1.83;;;28.30;40.30;;;;;;4991771;28;20045;-77
2022/08/11 17:59:50;;;;;;;5.10;1.80;;;28.20;41.10;;;;;;5032264;28;20546;-77
2022/08/11 17:59:50;;;;;;;5.68;1.88;;;27.90;41.90;;;;;;5030466;28;20057;-76
2022/08/11 18:05:10;;;;;;;5.47;1.83;;;27.70;42.70;;;;;;5033995;28;20504;-76
